Time;durP1;ratioP1;P1;durP2;ratioP2;P2;SDS_P1;SDS_P2;PMS_P1;PMS_P2;Temp;Humidity;BMP_temperature;BMP_pressure;BME280_temperature;BME280_humidity;BME280_pressure;Samples;Min_cycle;Max_cycle;Signal;HPM_P1;HPM_P2
2023/03/17 00:01:59;;;;;;;3.78;2.28;;;;;;;1.38;100.00;94816.81;5151100;27;20671;-78
2023/03/17 00:04:27;;;;;;;3.10;1.50;;;;;;;1.43;100.00;94819.50;5151252;27;20204;-78
2023/03/17 00:06:55;;;;;;;8.48;3.40;;;;;;;1.50;100.00;94824.59;5151426;27;20200;-77
2023/03/17 00:09:22;;;;;;;6.22;3.67;;;;;;;1.47;100.00;94824.31;5144730;27;20560;-77
2023/03/17 00:11:50;;;;;;;10.25;4.35;;;;;;;1.57;100.00;94824.31;5144937;27;20212;-77
2023/03/17 00:14:18;;;;;;;7.68;3.63;;;;;;;1.63;100.00;94817.94;5144709;27;20201;-77
2023/03/17 00:16:48;;;;;;;3.92;2.42;;;;;;;1.36;100.00;94824.31;5145323;27;20204;-78
2023/03/17 00:19:17;;;;;;;3.60;2.58;;;;;;;1.40;100.00;94827.22;5151417;27;20236;-78
2023/03/17 00:21:45;;;;;;;5.03;2.38;;;;;;;1.41;100.00;94818.97;5150489;27;20196;-78
2023/03/17 00:24:13;;;;;;;2.78;2.05;;;;;;;1.39;100.00;94818.44;5150182;27;20228;-78
2023/03/17 00:26:39;;;;;;;2.97;2.05;;;;;;;1.50;100.00;94824.59;5134921;27;20224;-77
2023/03/17 00:29:07;;;;;;;3.22;2.08;;;;;;;1.35;100.00;94822.72;5150553;27;20239;-77
2023/03/17 00:31:37;;;;;;;2.72;2.00;;;;;;;1.40;100.00;94825.38;5136826;27;20870;-77
2023/03/17 00:34:04;;;;;;;4.13;2.38;;;;;;;1.32;100.00;94815.22;5151577;27;20204;-77
2023/03/17 00:36:33;;;;;;;3.25;2.00;;;;;;;1.25;100.00;94814.66;5137862;27;20355;-78
2023/03/17 00:39:00;;;;;;;2.88;2.03;;;;;;;1.34;100.00;94821.09;5140511;27;20292;-78
2023/03/17 00:41:28;;;;;;;4.10;2.20;;;;;;;1.48;100.00;94820.59;5145252;27;20257;-78
2023/03/17 00:43:56;;;;;;;2.97;2.28;;;;;;;1.58;100.00;94820.59;5141258;27;20315;-78
2023/03/17 00:46:27;;;;;;;3.47;2.38;;;;;;;1.47;100.00;94829.66;5136677;27;20232;-77
2023/03/17 00:48:55;;;;;;;7.20;2.25;;;;;;;1.49;100.00;94822.19;5139330;27;20233;-77
2023/03/17 00:51:22;;;;;;;2.75;1.70;;;;;;;1.57;100.00;94824.31;5149496;27;20200;-77
2023/03/17 00:53:49;;;;;;;3.60;2.33;;;;;;;1.54;100.00;94824.84;5139181;27;20200;-77
2023/03/17 00:56:18;;;;;;;2.90;2.40;;;;;;;1.51;100.00;94831.50;5144259;27;20655;-77
2023/03/17 00:58:46;;;;;;;3.00;2.00;;;;;;;1.50;100.00;94826.47;5130889;27;20221;-78
2023/03/17 01:01:13;;;;;;;2.58;2.13;;;;;;;1.61;100.00;94830.75;5144733;27;20212;-77
2023/03/17 01:03:40;;;;;;;6.95;2.95;;;;;;;1.70;100.00;94829.13;5143930;27;20725;-78
2023/03/17 01:06:11;;;;;;;2.72;1.73;;;;;;;1.59;100.00;94822.19;5151601;27;20250;-78
2023/03/17 01:08:39;;;;;;;2.28;1.52;;;;;;;1.63;100.00;94823.28;5136966;27;20197;-78
2023/03/17 01:11:07;;;;;;;4.03;2.75;;;;;;;1.68;100.00;94831.25;5151650;27;20204;-78
2023/03/17 01:13:34;;;;;;;4.80;3.08;;;;;;;1.66;100.00;94834.19;5137014;27;20287;-77
2023/03/17 01:16:01;;;;;;;5.68;3.25;;;;;;;1.87;100.00;94836.88;5143347;27;20237;-78
2023/03/17 01:18:28;;;;;;;3.42;2.38;;;;;;;1.76;100.00;94828.06;5130854;27;20239;-79
2023/03/17 01:20:55;;;;;;;5.68;3.10;;;;;;;1.77;100.00;94835.03;5143349;27;20201;-78
2023/03/17 01:23:23;;;;;;;4.88;2.75;;;;;;;1.75;100.00;94829.94;5146919;27;20310;-78
2023/03/17 01:25:49;;;;;;;5.15;3.30;;;;;;;1.63;100.00;94828.59;5140563;27;20604;-78
2023/03/17 01:28:18;;;;;;;5.47;2.42;;;;;;;1.59;100.00;94835.53;5147403;27;20249;-79
2023/03/17 01:30:46;;;;;;;3.60;2.38;;;;;;;1.66;100.00;94823.50;5130634;27;20208;-79
2023/03/17 01:33:13;;;;;;;6.40;3.15;;;;;;;1.76;100.00;94834.22;5144151;27;20257;-79
2023/03/17 01:35:42;;;;;;;4.32;2.95;;;;;;;1.88;100.00;94831.28;5141371;27;20207;-80
2023/03/17 01:38:10;;;;;;;3.63;2.65;;;;;;;2.05;100.00;94845.13;5136210;27;20339;-80
2023/03/17 01:40:43;;;;;;;5.32;2.83;;;;;;;1.90;100.00;94831.81;5142556;27;20193;-79
2023/03/17 01:43:18;;;;;;;5.07;2.40;;;;;;;1.82;100.00;94840.34;5144776;27;20299;-80
2023/03/17 01:46:26;;;;;;;4.78;2.58;;;;;;;1.86;100.00;94844.09;5144668;27;20232;-78
2023/03/17 01:49:03;;;;;;;3.95;2.42;;;;;;;2.02;100.00;94843.03;5137387;27;20284;-79
2023/03/17 01:51:33;;;;;;;7.72;3.30;;;;;;;1.99;100.00;94840.88;5137421;27;20200;-79
2023/03/17 01:54:03;;;;;;;5.70;3.45;;;;;;;1.98;100.00;94839.28;5136901;27;20336;-79
2023/03/17 01:56:31;;;;;;;5.70;3.45;;;;;;;1.98;100.00;94847.28;5141843;27;20207;-79
2023/03/17 01:59:02;;;;;;;4.82;3.15;;;;;;;1.81;100.00;94846.75;5143223;27;20228;-79
2023/03/17 02:01:37;;;;;;;4.97;3.47;;;;;;;1.66;100.00;94849.41;5140089;27;20200;-79
2023/03/17 02:04:05;;;;;;;6.78;3.00;;;;;;;1.72;100.00;94854.50;5135997;27;20324;-78
2023/03/17 02:06:33;;;;;;;5.25;2.85;;;;;;;1.66;100.00;94849.41;5139252;27;20216;-78
2023/03/17 02:09:01;;;;;;;4.65;2.50;;;;;;;1.59;100.00;94855.03;5147884;27;20193;-78
2023/03/17 02:11:28;;;;;;;5.82;3.33;;;;;;;1.80;100.00;94845.16;5138059;27;20277;-79
2023/03/17 02:13:57;;;;;;;3.70;2.60;;;;;;;1.94;100.00;94856.91;5148183;27;20662;-79
2023/03/17 02:16:23;;;;;;;5.93;2.70;;;;;;;1.88;100.00;94854.50;5149821;27;20283;-79
2023/03/17 02:18:50;;;;;;;6.07;2.75;;;;;;;1.74;100.00;94857.72;5135561;27;20223;-79
2023/03/17 02:21:40;;;;;;;5.20;2.42;;;;;;;2.00;100.00;94861.19;5150172;27;20220;-79
2023/03/17 02:24:12;;;;;;;4.50;2.63;;;;;;;1.89;100.00;94862.25;5129361;27;20228;-78
2023/03/17 02:26:39;;;;;;;3.53;2.33;;;;;;;2.08;100.00;94857.97;5143051;27;20559;-78
2023/03/17 02:29:06;;;;;;;4.75;2.70;;;;;;;2.20;99.96;94860.34;5132815;27;20285;-79
2023/03/17 02:31:33;;;;;;;5.28;2.97;;;;;;;2.15;98.90;94863.03;5132028;27;20204;-78
2023/03/17 02:34:00;;;;;;;4.57;2.10;;;;;;;2.13;98.96;94870.53;5139827;27;20200;-78
2023/03/17 02:36:27;;;;;;;4.25;2.58;;;;;;;2.02;99.18;94858.25;5142746;27;20204;-79
2023/03/17 02:38:57;;;;;;;4.15;2.22;;;;;;;2.08;99.87;94871.31;5139284;27;20196;-79
2023/03/17 02:41:24;;;;;;;5.85;2.90;;;;;;;2.09;99.35;94870.25;5135374;27;20303;-79
2023/03/17 02:43:52;;;;;;;4.28;2.72;;;;;;;2.08;99.35;94876.66;5149708;27;20224;-79
2023/03/17 02:46:19;;;;;;;5.55;2.50;;;;;;;2.21;99.19;94882.53;5135931;27;20197;-78
2023/03/17 02:48:46;;;;;;;4.55;2.70;;;;;;;2.18;99.19;94883.09;5137080;27;20220;-80
2023/03/17 02:51:13;;;;;;;4.10;2.53;;;;;;;2.19;98.96;94884.69;5133682;27;20726;-78
2023/03/17 02:53:40;;;;;;;4.75;2.20;;;;;;;2.13;98.39;94886.56;5137238;27;20197;-78
2023/03/17 02:56:09;;;;;;;3.78;2.42;;;;;;;2.03;98.83;94886.56;5134360;27;20200;-79
2023/03/17 02:58:36;;;;;;;3.05;2.47;;;;;;;2.03;99.55;94895.38;5136648;27;20299;-79
2023/03/17 03:01:03;;;;;;;4.80;2.67;;;;;;;2.20;99.38;94883.59;5134883;27;20244;-79
2023/03/17 03:03:30;;;;;;;3.40;2.47;;;;;;;2.28;98.47;94883.06;5136132;27;20538;-79
2023/03/17 03:05:58;;;;;;;2.95;2.33;;;;;;;2.36;98.12;94885.19;5149060;27;20200;-79
2023/03/17 03:08:26;;;;;;;2.13;1.50;;;;;;;2.28;98.11;94889.22;5149513;27;20200;-79
2023/03/17 03:10:53;;;;;;;6.05;2.83;;;;;;;2.19;97.83;94888.13;5128569;28;20283;-79
2023/03/17 03:13:22;;;;;;;3.15;1.88;;;;;;;2.20;98.14;94887.06;5142637;27;20200;-80
2023/03/17 03:15:49;;;;;;;4.80;2.55;;;;;;;2.04;98.21;94894.31;5136354;27;20944;-80
2023/03/17 03:18:15;;;;;;;3.20;2.10;;;;;;;1.87;99.13;94893.78;5133960;27;20647;-80
2023/03/17 03:20:43;;;;;;;4.20;2.17;;;;;;;1.84;99.37;94899.63;5136772;27;20590;-80
2023/03/17 03:23:10;;;;;;;4.30;2.45;;;;;;;1.69;99.15;94896.94;5134660;27;20295;-80
2023/03/17 03:25:37;;;;;;;3.38;2.15;;;;;;;1.74;99.98;94902.31;5140641;27;20257;-80
2023/03/17 03:28:05;;;;;;;3.83;2.55;;;;;;;1.68;100.00;94900.69;5142129;27;20329;-80
2023/03/17 03:30:33;;;;;;;5.05;2.90;;;;;;;1.61;100.00;94900.16;5147173;27;20196;-79
2023/03/17 03:33:00;;;;;;;4.13;2.67;;;;;;;1.71;100.00;94902.81;5134749;27;20261;-79
2023/03/17 03:35:27;;;;;;;4.28;2.35;;;;;;;1.84;100.00;94910.31;5149457;27;20264;-79
2023/03/17 03:37:54;;;;;;;4.72;3.15;;;;;;;1.97;100.00;94907.13;5135462;27;20220;-79
2023/03/17 03:40:21;;;;;;;5.97;2.40;;;;;;;1.95;100.00;94911.91;5139408;27;20208;-79
2023/03/17 03:42:47;;;;;;;4.55;2.92;;;;;;;1.99;100.00;94913.00;5141800;27;20739;-80
2023/03/17 03:45:14;;;;;;;4.05;2.40;;;;;;;1.90;100.00;94914.59;5138349;27;20283;-80
2023/03/17 03:47:43;;;;;;;4.07;2.47;;;;;;;2.05;100.00;94914.59;5149324;27;20239;-80
2023/03/17 03:50:11;;;;;;;5.05;2.80;;;;;;;2.08;99.58;94923.94;5149130;27;20346;-80
2023/03/17 03:52:38;;;;;;;3.80;2.20;;;;;;;2.10;98.89;94917.28;5131631;27;20201;-80
2023/03/17 03:55:05;;;;;;;3.15;2.30;;;;;;;2.05;98.46;94927.94;5128612;28;20193;-80
2023/03/17 03:57:32;;;;;;;5.55;2.70;;;;;;;2.11;98.54;94918.88;5142265;27;20197;-80
2023/03/17 03:59:59;;;;;;;7.53;2.00;;;;;;;2.25;98.97;94924.50;5140043;27;20718;-80
2023/03/17 04:02:26;;;;;;;3.85;2.45;;;;;;;2.28;98.65;94923.97;5137003;27;20204;-80
2023/03/17 04:04:55;;;;;;;3.55;2.53;;;;;;;2.04;98.78;94925.56;5152164;27;20367;-80
2023/03/17 04:07:22;;;;;;;3.15;2.70;;;;;;;2.13;98.86;94934.66;5138167;27;20200;-80
2023/03/17 04:09:49;;;;;;;2.97;2.42;;;;;;;2.10;98.78;94935.97;5140061;27;20212;-80
2023/03/17 04:12:16;;;;;;;3.35;2.53;;;;;;;1.89;99.30;94929.03;5137060;27;20703;-81
2023/03/17 04:14:43;;;;;;;4.05;2.38;;;;;;;1.87;99.71;94931.16;5152261;27;20192;-80
2023/03/17 04:17:10;;;;;;;5.18;3.08;;;;;;;1.83;99.78;94934.63;5146429;27;20694;-80
2023/03/17 04:19:38;;;;;;;4.75;3.13;;;;;;;1.85;99.48;94933.28;5144660;27;20458;-81
2023/03/17 04:22:07;;;;;;;4.95;2.40;;;;;;;2.01;99.26;94937.59;5138704;27;20192;-80
2023/03/17 04:24:34;;;;;;;5.57;3.28;;;;;;;1.95;98.87;94945.84;5152089;27;20272;-79
2023/03/17 04:27:01;;;;;;;4.57;2.75;;;;;;;2.00;98.34;94952.00;5131854;27;20217;-80
2023/03/17 04:29:29;;;;;;;6.10;3.00;;;;;;;1.83;98.51;94951.44;5144953;27;20253;-79
2023/03/17 04:31:55;;;;;;;3.97;2.55;;;;;;;1.98;98.38;94951.47;5137881;27;20659;-79
2023/03/17 04:34:23;;;;;;;3.75;2.50;;;;;;;2.00;97.99;94952.00;5138689;27;20257;-80
2023/03/17 04:36:50;;;;;;;5.38;2.65;;;;;;;1.94;98.68;94947.72;5131190;27;20628;-81
2023/03/17 04:39:18;;;;;;;5.90;2.97;;;;;;;2.13;98.00;94951.47;5144884;27;20196;-80
2023/03/17 04:41:45;;;;;;;4.78;2.47;;;;;;;1.97;98.27;94963.22;5149211;27;20571;-79
2023/03/17 04:44:12;;;;;;;3.22;2.60;;;;;;;1.89;98.04;94950.41;5136520;27;20313;-80
2023/03/17 04:46:39;;;;;;;2.78;2.45;;;;;;;2.00;98.37;94952.00;5151523;27;20204;-80
2023/03/17 04:49:06;;;;;;;4.10;2.28;;;;;;;1.98;97.83;94958.69;5137847;27;20292;-80
2023/03/17 04:51:32;;;;;;;2.65;1.98;;;;;;;2.00;98.07;94956.53;5152115;27;20204;-80
2023/03/17 04:54:00;;;;;;;3.03;2.33;;;;;;;1.97;97.40;94965.88;5150781;27;20209;-80
2023/03/17 04:56:28;;;;;;;4.65;2.38;;;;;;;2.18;97.75;94969.41;5130571;27;20248;-79
2023/03/17 04:58:55;;;;;;;4.35;2.22;;;;;;;2.22;97.22;94970.44;5144181;27;20300;-80
2023/03/17 05:01:22;;;;;;;3.85;2.40;;;;;;;2.35;96.62;94974.47;5146271;27;20573;-78
2023/03/17 05:03:48;;;;;;;6.90;3.35;;;;;;;2.45;96.67;94979.81;5145017;27;20201;-80
2023/03/17 05:06:16;;;;;;;4.43;2.83;;;;;;;2.49;96.72;94981.69;5141764;27;20715;-80
2023/03/17 05:08:43;;;;;;;4.15;3.00;;;;;;;2.36;96.51;94982.22;5137762;27;20193;-80
2023/03/17 05:11:11;;;;;;;5.10;3.13;;;;;;;2.42;96.84;94980.34;5148896;27;20192;-78
2023/03/17 05:13:40;;;;;;;5.40;2.80;;;;;;;2.48;96.28;94987.28;5131262;27;20197;-78
2023/03/17 05:16:08;;;;;;;4.28;2.85;;;;;;;2.38;95.89;94993.44;5149765;27;20283;-78
2023/03/17 05:21:32;;;;;;;5.60;3.53;;;;;;;2.31;96.54;95000.13;5130072;27;20686;-78
2023/03/17 05:23:59;;;;;;;4.65;2.83;;;;;;;2.04;96.04;95001.19;5143483;27;20240;-78
2023/03/17 05:26:26;;;;;;;3.33;2.45;;;;;;;2.11;96.11;95017.75;5139233;27;20203;-78
2023/03/17 05:29:00;;;;;;;3.63;2.47;;;;;;;2.24;95.63;95007.59;5139506;27;20216;-78
2023/03/17 05:31:27;;;;;;;3.28;2.70;;;;;;;2.28;95.82;95008.69;5147700;27;20257;-79
2023/03/17 05:33:54;;;;;;;2.70;1.85;;;;;;;2.31;95.43;95013.50;5140621;27;20196;-78
2023/03/17 05:36:21;;;;;;;3.05;1.98;;;;;;;2.33;95.41;95008.66;5137053;27;20320;-78
2023/03/17 05:38:48;;;;;;;2.72;2.05;;;;;;;2.36;95.01;95018.84;5141201;27;20204;-78
2023/03/17 05:41:15;;;;;;;3.08;2.15;;;;;;;2.46;95.24;95016.19;5143675;27;20567;-79
2023/03/17 05:43:42;;;;;;;2.65;2.00;;;;;;;2.42;94.34;95017.78;5140226;27;20269;-78
2023/03/17 05:46:10;;;;;;;6.85;2.42;;;;;;;2.41;94.58;95016.16;5136309;27;20706;-78
2023/03/17 05:48:37;;;;;;;5.78;2.75;;;;;;;2.67;94.83;95017.78;5140362;27;20668;-77
2023/03/17 05:51:04;;;;;;;5.80;2.95;;;;;;;2.69;94.48;95029.00;5143742;27;20257;-78
2023/03/17 05:53:31;;;;;;;4.20;2.50;;;;;;;2.66;93.99;95026.88;5140158;27;20200;-78
2023/03/17 05:55:58;;;;;;;6.78;3.58;;;;;;;2.70;93.97;95022.59;5136973;27;20200;-78
2023/03/17 05:58:25;;;;;;;4.53;3.08;;;;;;;2.85;94.10;95022.59;5140454;27;20197;-78
2023/03/17 06:00:52;;;;;;;5.72;3.00;;;;;;;2.88;93.17;95036.47;5143287;27;20216;-77
2023/03/17 06:03:21;;;;;;;5.05;3.10;;;;;;;3.02;93.04;95032.19;5139822;27;20608;-77
2023/03/17 06:05:48;;;;;;;5.30;3.17;;;;;;;3.09;92.53;95041.53;5146046;27;20225;-77
2023/03/17 06:08:14;;;;;;;5.32;3.58;;;;;;;2.97;92.93;95051.72;5140808;27;20204;-77
2023/03/17 06:10:42;;;;;;;7.25;3.60;;;;;;;3.10;91.97;95050.38;5136343;27;20200;-77
2023/03/17 06:13:09;;;;;;;9.25;4.00;;;;;;;3.22;92.21;95058.91;5149841;27;20196;-76
2023/03/17 06:15:40;;;;;;;3.13;2.28;;;;;;;3.20;91.33;95055.72;5145936;27;20205;-76
2023/03/17 06:18:07;;;;;;;3.58;2.53;;;;;;;3.36;90.37;95059.97;5141077;27;20196;-76
2023/03/17 06:20:36;;;;;;;4.20;3.25;;;;;;;3.41;90.74;95062.63;5135369;27;20224;-76
2023/03/17 06:23:03;;;;;;;4.43;2.90;;;;;;;3.33;90.75;95070.41;5149821;27;20702;-77
2023/03/17 06:25:30;;;;;;;7.05;3.58;;;;;;;3.36;90.42;95069.88;5142416;27;20235;-76
2023/03/17 06:27:57;;;;;;;5.30;3.03;;;;;;;3.08;91.06;95069.38;5143320;27;20265;-76
2023/03/17 06:30:23;;;;;;;6.53;3.00;;;;;;;3.29;91.56;95075.50;5143432;27;20204;-76
2023/03/17 06:32:50;;;;;;;5.95;3.10;;;;;;;3.63;91.77;95075.69;5144109;27;20272;-76
2023/03/17 06:35:17;;;;;;;4.90;2.83;;;;;;;3.56;89.51;95065.25;5150659;27;20327;-76
2023/03/17 06:37:46;;;;;;;4.47;2.88;;;;;;;3.79;89.07;95068.41;5136171;27;20201;-76
2023/03/17 06:40:14;;;;;;;4.10;2.60;;;;;;;3.63;88.34;95074.88;5142047;27;20671;-77
2023/03/17 06:42:41;;;;;;;5.07;2.88;;;;;;;3.76;88.60;95079.66;5142724;27;20283;-77
2023/03/17 06:45:09;;;;;;;3.60;2.63;;;;;;;3.99;87.71;95079.03;5129384;27;20805;-76
2023/03/17 06:47:37;;;;;;;3.85;2.80;;;;;;;4.16;87.26;95070.63;5144382;27;20204;-76
2023/03/17 06:50:05;;;;;;;5.20;3.20;;;;;;;4.22;85.70;95075.72;5140269;27;20379;-77
2023/03/17 06:52:32;;;;;;;3.42;2.45;;;;;;;4.49;85.65;95069.91;5131483;27;20613;-78
2023/03/17 06:55:00;;;;;;;5.45;3.20;;;;;;;4.85;86.17;95065.09;5140110;27;20213;-77
2023/03/17 06:57:26;;;;;;;5.07;3.28;;;;;;;4.84;85.01;95071.53;5142399;27;20196;-76
2023/03/17 06:59:54;;;;;;;5.07;2.65;;;;;;;4.60;84.29;95078.69;5138728;27;20718;-76
2023/03/17 07:02:20;;;;;;;4.97;3.55;;;;;;;4.80;84.29;95075.84;5134846;27;20225;-77
2023/03/17 07:04:47;;;;;;;5.28;3.63;;;;;;;4.64;84.63;95082.44;5138518;27;20629;-76
2023/03/17 07:07:15;;;;;;;7.60;3.30;;;;;;;4.34;84.60;95085.31;5131715;27;20666;-76
2023/03/17 07:09:41;;;;;;;5.00;3.20;;;;;;;4.26;85.26;95079.44;5138570;27;20208;-77
2023/03/17 07:12:10;;;;;;;6.60;3.63;;;;;;;4.25;85.45;95093.09;5142693;27;20313;-77
2023/03/17 07:14:37;;;;;;;9.02;3.63;;;;;;;4.59;85.40;95090.50;5128353;28;20220;-77
2023/03/17 07:17:05;;;;;;;6.55;3.72;;;;;;;4.87;84.44;95084.41;5142476;27;20740;-76
2023/03/17 07:19:33;;;;;;;7.20;3.40;;;;;;;4.83;83.97;95077.19;5139655;27;20228;-77
2023/03/17 07:22:00;;;;;;;4.63;3.22;;;;;;;5.09;83.19;95080.47;5148449;27;20816;-76
2023/03/17 07:24:27;;;;;;;9.80;3.08;;;;;;;5.30;82.69;95076.53;5135321;27;20190;-78
2023/03/17 07:26:54;;;;;;;5.50;3.25;;;;;;;5.61;81.90;95083.19;5148184;27;20192;-78
2023/03/17 07:29:22;;;;;;;5.78;3.72;;;;;;;5.62;81.84;95082.09;5145989;27;20212;-77
2023/03/17 07:31:49;;;;;;;6.65;3.70;;;;;;;5.47;80.83;95079.56;5135200;27;20189;-78
2023/03/17 07:34:16;;;;;;;5.47;3.05;;;;;;;5.28;81.78;95084.06;5149250;27;20200;-76
2023/03/17 07:36:43;;;;;;;6.47;3.40;;;;;;;5.22;82.40;95091.34;5133292;27;20265;-78
2023/03/17 07:39:11;;;;;;;5.63;3.47;;;;;;;5.02;82.87;95080.00;5144955;27;20196;-77
2023/03/17 07:41:38;;;;;;;5.88;3.25;;;;;;;4.96;83.46;95093.44;5137519;27;20670;-78
2023/03/17 07:44:05;;;;;;;6.28;3.05;;;;;;;5.22;84.33;95091.34;5139488;27;20197;-78
2023/03/17 07:46:33;;;;;;;5.50;3.67;;;;;;;4.86;82.51;95101.59;5143388;27;20220;-81
2023/03/17 07:49:00;;;;;;;4.97;2.90;;;;;;;4.99;83.12;95098.25;5139352;27;20193;-80
2023/03/17 07:51:27;;;;;;;3.50;2.67;;;;;;;5.12;82.30;95096.00;5146458;27;20193;-79
2023/03/17 07:54:01;;;;;;;2.67;1.25;;;;;;;4.86;81.51;95092.72;5146216;27;20249;-79
2023/03/17 07:56:30;;;;;;;3.65;2.15;;;;;;;4.70;82.84;95105.44;5137039;27;20283;-78
2023/03/17 07:58:57;;;;;;;4.65;2.58;;;;;;;5.08;82.69;95103.03;5148974;27;20241;-80
2023/03/17 08:01:24;;;;;;;5.07;2.85;;;;;;;5.42;81.65;95103.81;5139004;27;20629;-79
2023/03/17 08:03:53;;;;;;;6.15;3.22;;;;;;;5.36;80.80;95096.88;5147454;27;20196;-80
2023/03/17 08:06:20;;;;;;;4.57;2.70;;;;;;;6.04;79.64;95102.91;5151170;27;20235;-78
2023/03/17 08:08:47;;;;;;;3.17;2.30;;;;;;;5.80;79.00;95109.34;5147267;27;20218;-80
2023/03/17 08:11:14;;;;;;;3.35;2.05;;;;;;;6.10;80.23;95103.66;5152060;27;20201;-79
2023/03/17 08:13:41;;;;;;;4.00;2.25;;;;;;;6.28;78.84;95102.88;5138260;27;20224;-77
2023/03/17 08:16:08;;;;;;;3.63;2.20;;;;;;;5.75;78.45;95101.31;5143124;27;20793;-75
2023/03/17 08:18:35;;;;;;;3.80;2.35;;;;;;;5.69;79.50;95112.13;5144964;27;20196;-75
2023/03/17 08:21:04;;;;;;;2.90;2.20;;;;;;;5.58;78.83;95110.66;5141002;27;20683;-75
2023/03/17 08:23:31;;;;;;;2.45;1.90;;;;;;;5.62;78.18;95114.34;5152322;27;20196;-74
2023/03/17 08:25:58;;;;;;;4.07;2.95;;;;;;;5.78;78.70;95103.44;5152766;27;20273;-75
2023/03/17 08:28:25;;;;;;;5.68;3.08;;;;;;;5.81;79.12;95100.19;5152114;27;20770;-75
2023/03/17 08:30:51;;;;;;;3.30;2.30;;;;;;;6.06;79.23;95110.69;5152319;27;20252;-76
2023/03/17 08:33:18;;;;;;;9.00;3.78;;;;;;;6.26;78.52;95110.44;5148112;27;20205;-80
2023/03/17 08:35:45;;;;;;;5.38;3.30;;;;;;;6.54;78.15;95106.03;5131409;27;20201;-79
2023/03/17 08:38:14;;;;;;;14.80;6.40;;;;;;;6.41;77.38;95102.19;5146635;27;20799;-79
2023/03/17 08:40:41;;;;;;;11.05;5.38;;;;;;;6.81;76.29;95100.00;5143372;27;20208;-79
2023/03/17 08:43:08;;;;;;;8.18;4.30;;;;;;;6.80;75.57;95100.28;5133488;27;20246;-80
2023/03/17 08:45:35;;;;;;;9.00;4.88;;;;;;;6.95;74.54;95095.50;5143912;27;20227;-78
2023/03/17 08:48:02;;;;;;;13.18;6.05;;;;;;;7.26;75.45;95094.97;5147740;27;20225;-79
2023/03/17 08:50:29;;;;;;;6.57;3.80;;;;;;;7.36;74.55;95094.81;5132031;27;20200;-78
2023/03/17 08:52:57;;;;;;;6.22;3.58;;;;;;;7.53;72.33;95100.44;5147461;27;20197;-79
2023/03/17 08:55:25;;;;;;;8.55;2.63;;;;;;;7.76;71.71;95099.50;5144990;27;20193;-78
2023/03/17 08:57:52;;;;;;;3.22;2.42;;;;;;;7.92;71.06;95099.22;5138332;27;20200;-78
2023/03/17 09:00:20;;;;;;;5.60;2.70;;;;;;;7.80;70.05;95100.47;5139716;27;20220;-79
2023/03/17 09:02:48;;;;;;;6.20;3.03;;;;;;;8.08;69.87;95100.50;5145013;27;20617;-79
2023/03/17 09:05:16;;;;;;;4.75;2.90;;;;;;;7.93;67.70;95092.69;5144543;27;20226;-78
2023/03/17 09:07:43;;;;;;;4.78;3.33;;;;;;;8.10;67.37;95103.69;5139086;27;20616;-78
2023/03/17 09:10:12;;;;;;;6.13;3.20;;;;;;;8.57;67.65;95104.41;5151853;27;20207;-78
2023/03/17 09:12:40;;;;;;;6.28;3.10;;;;;;;8.60;68.68;95111.91;5131103;27;20682;-78
2023/03/17 09:15:09;;;;;;;5.45;3.25;;;;;;;8.43;67.38;95102.53;5144801;27;20200;-78
2023/03/17 09:17:36;;;;;;;4.45;2.40;;;;;;;8.04;66.96;95116.50;5139227;27;20252;-78
2023/03/17 09:20:05;;;;;;;4.32;2.50;;;;;;;8.59;66.72;95110.31;5137215;27;20790;-79
2023/03/17 09:22:32;;;;;;;4.72;2.42;;;;;;;8.65;63.72;95109.88;5151416;27;20196;-79
2023/03/17 09:24:59;;;;;;;4.53;3.00;;;;;;;8.94;66.44;95106.81;5151401;27;20196;-79
2023/03/17 09:27:30;;;;;;;6.70;2.92;;;;;;;9.11;64.56;95106.94;5143640;27;20193;-79
2023/03/17 09:29:59;;;;;;;3.78;2.05;;;;;;;9.26;63.21;95098.47;5147185;27;20660;-79
2023/03/17 09:32:26;;;;;;;2.83;2.10;;;;;;;9.51;62.97;95101.66;5130885;27;20201;-78
2023/03/17 09:34:52;;;;;;;2.60;1.80;;;;;;;9.60;61.20;95091.69;5149953;27;20188;-78
2023/03/17 09:37:21;;;;;;;3.90;2.63;;;;;;;9.60;59.56;95097.09;5155605;27;20204;-79
2023/03/17 09:39:48;;;;;;;2.08;1.77;;;;;;;9.59;58.45;95101.69;5132469;27;20288;-78
2023/03/17 09:42:35;;;;;;;3.33;1.95;;;;;;;9.84;60.59;95102.94;5142044;27;20724;-78
2023/03/17 09:45:16;;;;;;;3.47;2.83;;;;;;;9.65;60.02;95105.09;5130219;27;20200;-77
2023/03/17 09:47:56;;;;;;;2.00;1.58;;;;;;;9.60;58.91;95108.72;5147114;27;20207;-79
2023/03/17 09:50:25;;;;;;;3.60;1.58;;;;;;;9.16;59.39;95104.13;5150111;27;20200;-78
2023/03/17 09:52:55;;;;;;;2.67;1.92;;;;;;;9.27;58.57;95110.09;5144946;27;20280;-79
2023/03/17 09:55:27;;;;;;;5.00;3.33;;;;;;;9.80;59.49;95107.41;5142584;27;20663;-77
2023/03/17 09:57:55;;;;;;;6.55;3.45;;;;;;;9.21;58.90;95109.41;5137185;27;20196;-77
2023/03/17 10:00:27;;;;;;;3.00;2.60;;;;;;;9.27;58.52;95116.31;5136298;27;21023;-79
2023/03/17 10:02:55;;;;;;;5.18;3.42;;;;;;;9.36;58.28;95108.25;5129868;27;20374;-77
2023/03/17 10:05:25;;;;;;;4.18;2.38;;;;;;;8.92;56.69;95119.81;5143483;27;20236;-78
2023/03/17 10:08:01;;;;;;;5.20;2.33;;;;;;;8.93;58.99;95116.00;5138400;27;20198;-78
2023/03/17 10:10:35;;;;;;;3.15;2.15;;;;;;;8.95;60.96;95118.41;5136303;27;20196;-78
2023/03/17 10:13:10;;;;;;;6.13;2.97;;;;;;;9.00;60.08;95116.41;5139359;27;20220;-77
2023/03/17 10:15:46;;;;;;;3.92;2.28;;;;;;;8.30;61.27;95114.09;5135995;27;20279;-77
2023/03/17 10:18:15;;;;;;;10.45;2.47;;;;;;;8.88;60.41;95113.44;5136605;27;20204;-78
2023/03/17 10:20:50;;;;;;;4.90;2.65;;;;;;;9.42;57.83;95107.03;5129024;27;20259;-78
2023/03/17 10:23:20;;;;;;;5.28;2.75;;;;;;;8.72;59.08;95114.88;5143587;27;20188;-77
2023/03/17 10:25:48;;;;;;;4.60;2.90;;;;;;;8.97;59.38;95108.91;5138828;27;21395;-77
2023/03/17 10:28:25;;;;;;;4.53;2.80;;;;;;;9.55;57.33;95099.94;5128364;27;20726;-79
2023/03/17 10:30:54;;;;;;;4.85;2.83;;;;;;;10.23;55.23;95112.25;5141253;27;20651;-78
2023/03/17 10:33:21;;;;;;;2.88;2.28;;;;;;;9.95;53.48;95093.47;5137254;27;20219;-77
2023/03/17 10:35:48;;;;;;;3.97;2.50;;;;;;;9.82;55.70;95099.78;5150841;27;20605;-77
2023/03/17 10:38:17;;;;;;;6.50;2.83;;;;;;;9.90;56.02;95101.72;5131375;27;20193;-78
2023/03/17 10:40:47;;;;;;;3.80;2.88;;;;;;;10.23;55.04;95093.28;5129847;27;20197;-78
2023/03/17 10:43:18;;;;;;;4.40;2.45;;;;;;;10.68;55.75;95091.94;5143143;27;20289;-77
2023/03/17 10:45:58;;;;;;;4.03;2.45;;;;;;;10.75;53.49;95087.97;5143540;27;20224;-78
2023/03/17 10:48:25;;;;;;;5.57;2.97;;;;;;;10.50;55.44;95086.84;5120084;27;20279;-78
2023/03/17 10:50:55;;;;;;;4.15;2.63;;;;;;;10.09;55.82;95093.38;5136290;27;20212;-77
2023/03/17 10:53:26;;;;;;;5.50;3.13;;;;;;;9.75;56.28;95088.59;5150360;27;20244;-77
2023/03/17 10:55:57;;;;;;;4.82;2.90;;;;;;;9.95;56.83;95081.84;5113643;28;20231;-78
2023/03/17 10:58:44;;;;;;;6.20;3.22;;;;;;;10.31;56.17;95079.78;5140530;27;20197;-78
2023/03/17 11:01:22;;;;;;;5.82;2.83;;;;;;;10.82;54.65;95070.13;5136312;27;20577;-78
2023/03/17 11:03:49;;;;;;;6.90;3.13;;;;;;;11.10;54.08;95067.91;5135860;27;20245;-78
2023/03/17 11:09:17;;;;;;;5.90;3.10;;;;;;;10.80;51.68;95055.28;5143073;27;20216;-78
2023/03/17 11:11:45;;;;;;;5.55;3.20;;;;;;;10.23;53.46;95058.09;5146439;27;20681;-78
2023/03/17 11:14:15;;;;;;;4.68;2.90;;;;;;;10.76;52.47;95052.44;5146378;27;20336;-78
2023/03/17 11:16:57;;;;;;;7.10;3.03;;;;;;;11.08;52.35;95048.44;5148344;27;20243;-77
2023/03/17 11:20:15;;;;;;;4.88;2.53;;;;;;;10.63;52.81;95042.56;5135611;27;20235;-77
2023/03/17 11:22:54;;;;;;;4.10;3.00;;;;;;;10.32;52.70;95048.06;5133328;27;20225;-77
2023/03/17 11:25:22;;;;;;;5.18;2.63;;;;;;;9.96;52.75;95057.19;5138012;27;20276;-77
2023/03/17 11:27:54;;;;;;;4.82;3.00;;;;;;;9.79;52.67;95062.50;5140385;27;20228;-78
2023/03/17 11:30:30;;;;;;;7.60;3.40;;;;;;;8.98;54.66;95059.16;5141939;27;20239;-76
2023/03/17 11:33:09;;;;;;;4.40;2.72;;;;;;;9.03;53.75;95055.53;5148445;27;20602;-77
2023/03/17 11:35:49;;;;;;;6.55;3.85;;;;;;;9.72;52.32;95050.53;5143383;27;20224;-77
2023/03/17 11:38:27;;;;;;;8.23;4.13;;;;;;;10.06;51.36;95050.69;5147064;27;20192;-78
2023/03/17 11:41:40;;;;;;;5.50;3.15;;;;;;;10.15;51.30;95050.69;5146769;27;20315;-77
2023/03/17 11:44:34;;;;;;;5.75;2.70;;;;;;;10.62;50.24;95047.16;5145288;27;20216;-78
2023/03/17 11:47:13;;;;;;;6.85;4.10;;;;;;;11.29;51.04;95043.97;5130178;27;20313;-78
2023/03/17 11:49:43;;;;;;;5.82;3.88;;;;;;;10.76;51.76;95046.22;5151432;27;20208;-77
2023/03/17 11:52:22;;;;;;;7.90;4.38;;;;;;;10.87;50.39;95042.88;5152893;27;20196;-77
2023/03/17 11:54:57;;;;;;;5.80;3.50;;;;;;;10.26;51.93;95043.91;5132204;27;20668;-76